Colombo Express — DIHC — position and weather

sailwx.info

Track history (hours):
 
Tides and Currents Weather Stations Pressure Air Temp Water Temp Dewpoint Dewpoint Depression Visibility Wind Speed Wind Dir Waves Ship Positions

Colombo Express

Last reported at 2014-Sep-27 13:20 UTC. Time now 2014-Oct-01 10:12 UTC.
Position N 31°48' E 031°32'.

Length 335.5 m; beam 42.8 m; draft 14.6 m.

Type: Ship. MMSI: 211433000.

Date/timePositionNaut miles runAvg speedWind from/ knotsBaromVisibWave heightAir tempDewpointWater temp
2014-Sep-27 13:20N 31°48' E 031°32'1815.8
2014-Sep-27 12:13N 31°53' E 031°13'41617.2
2014-Sep-26 12:00N 33°54' E 023°18'9214.3 330 / 41015.010.8 26.023.925.0
2014-Sep-26 05:33N 34°30' E 021°36'3416.4
2014-Sep-26 03:27N 34°40' E 020°56'33216.5
2014-Sep-25 07:22N 36°23' E 014°27'21716.7
2014-Sep-24 18:24N 37°34' E 010°11'1617.1
2014-Sep-24 17:28N 37°36' E 009°51'1717.1
2014-Sep-24 16:30N 37°40' E 009°31'1717.2
2014-Sep-24 15:30N 37°45' E 009°10'25116.7
2014-Sep-24 00:31N 38°45' E 004°00'1616.7
2014-Sep-23 23:33N 38°49' E 003°40'1716.6
2014-Sep-23 22:33N 38°53' E 003°19'1616.6
2014-Sep-23 21:33N 38°57' E 002°59'1716.6
2014-Sep-23 20:33N 39°01' E 002°38'1716.6
2014-Sep-23 19:33N 39°05' E 002°17'1716.6
2014-Sep-23 18:33N 39°09' E 001°56'1716.8
2014-Sep-23 17:33N 39°13' E 001°35'1717.0
2014-Sep-23 16:33N 39°15' E 001°13'5517.6
2014-Sep-23 13:24N 39°22' E 000°02'1517.4
2014-Sep-23 12:33N 39°25' W 000°16'3 2.7
2014-Sep-23 11:31N 39°27' W 000°19'0 0.0
2014-Sep-23 10:31N 39°27' W 000°19'0 0.0
2014-Sep-23 09:31N 39°27' W 000°19'0 0.0
2014-Sep-23 08:31N 39°27' W 000°19'0 0.0
2014-Sep-23 07:31N 39°27' W 000°19'0 0.0
2014-Sep-23 06:31N 39°27' W 000°19'0 0.0
2014-Sep-23 05:31N 39°27' W 000°19'0 0.0
2014-Sep-23 04:31N 39°27' W 000°19'0 0.0
2014-Sep-23 03:28N 39°27' W 000°19'0 0.0
2014-Sep-23 02:31N 39°27' W 000°19'0 0.0
2014-Sep-23 01:31N 39°27' W 000°19'0 0.0
2014-Sep-23 00:31N 39°27' W 000°19'0 0.0
2014-Sep-22 23:33N 39°27' W 000°19'0 0.0
2014-Sep-22 22:33N 39°27' W 000°19'0 0.0
2014-Sep-22 21:33N 39°27' W 000°19'0 0.0
2014-Sep-22 20:33N 39°27' W 000°19'0 0.0
2014-Sep-22 19:33N 39°27' W 000°19'0 0.0
2014-Sep-22 18:33N 39°27' W 000°19'0 0.0
2014-Sep-22 17:33N 39°27' W 000°19'0 0.0
2014-Sep-22 16:33N 39°27' W 000°19'0 0.0
2014-Sep-22 15:33N 39°27' W 000°19'0 0.0
2014-Sep-22 14:33N 39°27' W 000°19'0 0.0
2014-Sep-22 13:33N 39°27' W 000°19'0 0.0
2014-Sep-22 12:30N 39°27' W 000°19'0 0.0
2014-Sep-22 11:33N 39°27' W 000°19'3 3.5
2014-Sep-22 10:33N 39°27' W 000°14'7 6.9
2014-Sep-22 09:33N 39°31' W 000°08'3912.4
2014-Sep-22 06:23N 39°58' E 000°30'1417.2
2014-Sep-22 05:33N 40°08' E 000°44'1716.9
2014-Sep-22 04:33N 40°19' E 001°01'1716.8
2014-Sep-22 03:33N 40°30' E 001°17'1717.2
2014-Sep-22 02:33N 40°42' E 001°33'1717.1
2014-Sep-22 01:33N 40°55' E 001°48'1817.6
2014-Sep-22 00:33N 41°09' E 002°03'1312.8
2014-Sep-21 23:33N 41°20' E 002°10'1 1.1
2014-Sep-21 22:32N 41°21' E 002°10'0 0.0
2014-Sep-21 21:28N 41°21' E 002°10'0 0.0
2014-Sep-21 20:29N 41°21' E 002°10'0 0.0
2014-Sep-21 18:31N 41°21' E 002°10'0 0.0
2014-Sep-21 17:16N 41°21' E 002°10'0 0.0
2014-Sep-21 15:31N 41°21' E 002°10'0 0.0
2014-Sep-21 14:31N 41°21' E 002°10'0 0.0
2014-Sep-21 11:22N 41°21' E 002°10'0 0.0
2014-Sep-21 08:22N 41°21' E 002°10'0 0.0
2014-Sep-21 07:12N 41°21' E 002°10'0 0.0
2014-Sep-21 06:30N 41°21' E 002°10'0 0.0
2014-Sep-21 05:33N 41°21' E 002°10'0 0.0
2014-Sep-21 04:23N 41°21' E 002°10'3 3.4
2014-Sep-21 03:31N 41°18' E 002°11'4 3.8
2014-Sep-21 02:33N 41°19' E 002°15'1211.7
2014-Sep-21 01:33N 41°24' E 002°29'1111.4
2014-Sep-21 00:33N 41°30' E 002°42'1616.0
2014-Sep-20 23:32N 41°38' E 003°01'1717.6
2014-Sep-20 22:33N 41°48' E 003°19'1817.7
2014-Sep-20 21:33N 42°02' E 003°35'1817.8
2014-Sep-20 20:33N 42°15' E 003°51'1717.4
2014-Sep-20 19:34N 42°28' E 004°07'1717.5
2014-Sep-20 18:34N 42°41' E 004°23'1716.8
2014-Sep-20 17:33N 42°53' E 004°38'1717.3
2014-Sep-20 16:33N 43°06' E 004°54'1515.2
2014-Sep-20 15:33N 43°21' E 004°58'6 6.3
2014-Sep-20 14:33N 43°25' E 004°51'0 0.0
2014-Sep-20 13:31N 43°25' E 004°51'0 0.0
2014-Sep-20 12:31N 43°25' E 004°51'0 0.0
2014-Sep-20 11:28N 43°25' E 004°51'0 0.0
2014-Sep-20 10:31N 43°25' E 004°51'0 0.0
2014-Sep-20 09:31N 43°25' E 004°51'0 0.0
2014-Sep-20 08:31N 43°25' E 004°51'0 0.1
2014-Sep-20 07:31N 43°25' E 004°51'0 0.0
2014-Sep-20 06:31N 43°25' E 004°51'0 0.0
2014-Sep-20 05:31N 43°25' E 004°51'0 0.0
2014-Sep-20 04:28N 43°25' E 004°51'0 0.0
2014-Sep-20 03:31N 43°25' E 004°51'0 0.0
2014-Sep-20 02:31N 43°25' E 004°51'0 0.0
2014-Sep-20 01:31N 43°25' E 004°51'0 0.0
2014-Sep-20 00:31N 43°25' E 004°51'0 0.0
2014-Sep-19 23:31N 43°25' E 004°51'0 0.0
2014-Sep-19 22:31N 43°25' E 004°51'0 0.0
2014-Sep-19 21:31N 43°25' E 004°51'0 0.0
2014-Sep-19 20:31N 43°25' E 004°51'0 0.0
2014-Sep-19 19:28N 43°25' E 004°51'0 0.0
2014-Sep-19 18:31N 43°25' E 004°51'0 0.0
2014-Sep-19 17:31N 43°25' E 004°51'0 0.0
2014-Sep-19 16:28N 43°25' E 004°51'0 0.0
2014-Sep-19 15:31N 43°25' E 004°51'0 0.0
2014-Sep-19 14:31N 43°25' E 004°51'0 0.0
2014-Sep-19 13:28N 43°25' E 004°51'0 0.0
2014-Sep-19 12:31N 43°25' E 004°51'0 0.0
2014-Sep-19 11:31N 43°25' E 004°51'0 0.0
2014-Sep-19 10:31N 43°25' E 004°51'0 0.0
2014-Sep-19 09:31N 43°25' E 004°51'0 0.0
2014-Sep-19 08:31N 43°25' E 004°51'0 0.0
2014-Sep-19 07:31N 43°25' E 004°51'0 0.0
2014-Sep-19 06:28N 43°25' E 004°51'0 0.0
2014-Sep-19 05:28N 43°25' E 004°51'0 0.0
2014-Sep-19 04:31N 43°25' E 004°51'0 0.0
2014-Sep-19 03:31N 43°25' E 004°51'0 0.0
2014-Sep-19 02:31N 43°25' E 004°51'0 0.0
2014-Sep-19 01:31N 43°25' E 004°51'0 0.0
2014-Sep-19 00:31N 43°25' E 004°51'0 0.0
2014-Sep-18 23:31N 43°25' E 004°51'0 0.0
2014-Sep-18 22:31N 43°25' E 004°51'0 0.1
2014-Sep-18 21:31N 43°25' E 004°51'0 0.0
2014-Sep-18 20:33N 43°25' E 004°51'6 5.6
2014-Sep-18 19:33N 43°22' E 004°58'2 2.1
2014-Sep-18 18:31N 43°21' E 004°60'0 0.0
2014-Sep-18 17:31N 43°21' E 004°60'0 0.0
2014-Sep-18 16:31N 43°21' E 004°60'0 0.0
2014-Sep-18 15:31N 43°21' E 004°60'0 0.0
2014-Sep-18 14:31N 43°21' E 004°60'0 0.0
2014-Sep-18 13:31N 43°21' E 004°60'0 0.1
2014-Sep-18 12:33N 43°21' E 005°00'1 1.3
2014-Sep-18 11:33N 43°20' E 004°59'1010.4
2014-Sep-18 10:34N 43°10' E 005°04'1110.5
2014-Sep-18 09:33N 43°03' E 005°16'1110.8
2014-Sep-18 08:30N 42°59' E 005°30'1010.7
2014-Sep-18 07:33N 42°55' E 005°43'1110.6
2014-Sep-18 06:33N 42°51' E 005°56'1110.8
2014-Sep-18 05:33N 42°51' E 006°11'1110.8
2014-Sep-18 04:34N 42°51' E 006°26'1010.3
2014-Sep-18 03:33N 42°55' E 006°39'1110.6
2014-Sep-18 02:33N 43°02' E 006°50'1110.7
2014-Sep-18 01:34N 43°08' E 007°01'1110.8
2014-Sep-18 00:33N 43°15' E 007°13'1110.7
2014-Sep-17 23:33N 43°22' E 007°25'1110.6
2014-Sep-17 22:33N 43°28' E 007°36'1110.5
2014-Sep-17 21:33N 43°35' E 007°48'1110.8
2014-Sep-17 20:33N 43°41' E 007°59'1110.7
2014-Sep-17 19:33N 43°48' E 008°11'1110.9
2014-Sep-17 18:32N 43°57' E 008°21'1110.8
2014-Sep-17 17:34N 44°05' E 008°30'1110.8
2014-Sep-17 16:33N 44°14' E 008°39'1110.5
2014-Sep-17 15:33N 44°24' E 008°43'3 3.0
2014-Sep-17 14:33N 44°25' E 008°47'0 0.0
2014-Sep-17 13:33N 44°25' E 008°47'  
Track history (hours):
 
Tides and Currents Weather Stations Pressure Air Temp Water Temp Dewpoint Dewpoint Depression Visibility Wind Speed Wind Dir Waves Ship Positions

Colombo Express

Last reported at 2014-Sep-27 13:20 UTC. Time now 2014-Oct-01 10:12 UTC.
Position N 31°48' E 031°32'.

Length 335.5 m; beam 42.8 m; draft 14.6 m.

Type: Ship. MMSI: 211433000.

Date/timePositionNaut miles runAvg speedWind from/ knotsBaromVisibWave heightAir tempDewpointWater temp
2014-Sep-27 13:20N 31°48' E 031°32'1815.8
2014-Sep-27 12:13N 31°53' E 031°13'41617.2
2014-Sep-26 12:00N 33°54' E 023°18'9214.3 330 / 41015.010.8 26.023.925.0
2014-Sep-26 05:33N 34°30' E 021°36'3416.4
2014-Sep-26 03:27N 34°40' E 020°56'33216.5
2014-Sep-25 07:22N 36°23' E 014°27'21716.7
2014-Sep-24 18:24N 37°34' E 010°11'1617.1
2014-Sep-24 17:28N 37°36' E 009°51'1717.1
2014-Sep-24 16:30N 37°40' E 009°31'1717.2
2014-Sep-24 15:30N 37°45' E 009°10'25116.7
2014-Sep-24 00:31N 38°45' E 004°00'1616.7
2014-Sep-23 23:33N 38°49' E 003°40'1716.6
2014-Sep-23 22:33N 38°53' E 003°19'1616.6
2014-Sep-23 21:33N 38°57' E 002°59'1716.6
2014-Sep-23 20:33N 39°01' E 002°38'1716.6
2014-Sep-23 19:33N 39°05' E 002°17'1716.6
2014-Sep-23 18:33N 39°09' E 001°56'1716.8
2014-Sep-23 17:33N 39°13' E 001°35'1717.0
2014-Sep-23 16:33N 39°15' E 001°13'5517.6
2014-Sep-23 13:24N 39°22' E 000°02'1517.4
2014-Sep-23 12:33N 39°25' W 000°16'3 2.7
2014-Sep-23 11:31N 39°27' W 000°19'0 0.0
2014-Sep-23 10:31N 39°27' W 000°19'0 0.0
2014-Sep-23 09:31N 39°27' W 000°19'0 0.0
2014-Sep-23 08:31N 39°27' W 000°19'0 0.0
2014-Sep-23 07:31N 39°27' W 000°19'0 0.0
2014-Sep-23 06:31N 39°27' W 000°19'0 0.0
2014-Sep-23 05:31N 39°27' W 000°19'0 0.0
2014-Sep-23 04:31N 39°27' W 000°19'0 0.0
2014-Sep-23 03:28N 39°27' W 000°19'0 0.0
2014-Sep-23 02:31N 39°27' W 000°19'0 0.0
2014-Sep-23 01:31N 39°27' W 000°19'0 0.0
2014-Sep-23 00:31N 39°27' W 000°19'0 0.0
2014-Sep-22 23:33N 39°27' W 000°19'0 0.0
2014-Sep-22 22:33N 39°27' W 000°19'0 0.0
2014-Sep-22 21:33N 39°27' W 000°19'0 0.0
2014-Sep-22 20:33N 39°27' W 000°19'0 0.0
2014-Sep-22 19:33N 39°27' W 000°19'0 0.0
2014-Sep-22 18:33N 39°27' W 000°19'0 0.0
2014-Sep-22 17:33N 39°27' W 000°19'0 0.0
2014-Sep-22 16:33N 39°27' W 000°19'0 0.0
2014-Sep-22 15:33N 39°27' W 000°19'0 0.0
2014-Sep-22 14:33N 39°27' W 000°19'0 0.0
2014-Sep-22 13:33N 39°27' W 000°19'0 0.0
2014-Sep-22 12:30N 39°27' W 000°19'0 0.0
2014-Sep-22 11:33N 39°27' W 000°19'3 3.5
2014-Sep-22 10:33N 39°27' W 000°14'7 6.9
2014-Sep-22 09:33N 39°31' W 000°08'3912.4
2014-Sep-22 06:23N 39°58' E 000°30'1417.2
2014-Sep-22 05:33N 40°08' E 000°44'1716.9
2014-Sep-22 04:33N 40°19' E 001°01'1716.8
2014-Sep-22 03:33N 40°30' E 001°17'1717.2
2014-Sep-22 02:33N 40°42' E 001°33'1717.1
2014-Sep-22 01:33N 40°55' E 001°48'1817.6
2014-Sep-22 00:33N 41°09' E 002°03'1312.8
2014-Sep-21 23:33N 41°20' E 002°10'1 1.1
2014-Sep-21 22:32N 41°21' E 002°10'0 0.0
2014-Sep-21 21:28N 41°21' E 002°10'0 0.0
2014-Sep-21 20:29N 41°21' E 002°10'0 0.0
2014-Sep-21 18:31N 41°21' E 002°10'0 0.0
2014-Sep-21 17:16N 41°21' E 002°10'0 0.0
2014-Sep-21 15:31N 41°21' E 002°10'0 0.0
2014-Sep-21 14:31N 41°21' E 002°10'0 0.0
2014-Sep-21 11:22N 41°21' E 002°10'0 0.0
2014-Sep-21 08:22N 41°21' E 002°10'0 0.0
2014-Sep-21 07:12N 41°21' E 002°10'0 0.0
2014-Sep-21 06:30N 41°21' E 002°10'0 0.0
2014-Sep-21 05:33N 41°21' E 002°10'0 0.0
2014-Sep-21 04:23N 41°21' E 002°10'3 3.4
2014-Sep-21 03:31N 41°18' E 002°11'4 3.8
2014-Sep-21 02:33N 41°19' E 002°15'1211.7
2014-Sep-21 01:33N 41°24' E 002°29'1111.4
2014-Sep-21 00:33N 41°30' E 002°42'1616.0
2014-Sep-20 23:32N 41°38' E 003°01'1717.6
2014-Sep-20 22:33N 41°48' E 003°19'1817.7
2014-Sep-20 21:33N 42°02' E 003°35'1817.8
2014-Sep-20 20:33N 42°15' E 003°51'1717.4
2014-Sep-20 19:34N 42°28' E 004°07'1717.5
2014-Sep-20 18:34N 42°41' E 004°23'1716.8
2014-Sep-20 17:33N 42°53' E 004°38'1717.3
2014-Sep-20 16:33N 43°06' E 004°54'1515.2
2014-Sep-20 15:33N 43°21' E 004°58'6 6.3
2014-Sep-20 14:33N 43°25' E 004°51'0 0.0
2014-Sep-20 13:31N 43°25' E 004°51'0 0.0
2014-Sep-20 12:31N 43°25' E 004°51'0 0.0
2014-Sep-20 11:28N 43°25' E 004°51'0 0.0
2014-Sep-20 10:31N 43°25' E 004°51'0 0.0
2014-Sep-20 09:31N 43°25' E 004°51'0 0.0
2014-Sep-20 08:31N 43°25' E 004°51'0 0.1
2014-Sep-20 07:31N 43°25' E 004°51'0 0.0
2014-Sep-20 06:31N 43°25' E 004°51'0 0.0
2014-Sep-20 05:31N 43°25' E 004°51'0 0.0
2014-Sep-20 04:28N 43°25' E 004°51'0 0.0
2014-Sep-20 03:31N 43°25' E 004°51'0 0.0
2014-Sep-20 02:31N 43°25' E 004°51'0 0.0
2014-Sep-20 01:31N 43°25' E 004°51'0 0.0
2014-Sep-20 00:31N 43°25' E 004°51'0 0.0
2014-Sep-19 23:31N 43°25' E 004°51'0 0.0
2014-Sep-19 22:31N 43°25' E 004°51'0 0.0
2014-Sep-19 21:31N 43°25' E 004°51'0 0.0
2014-Sep-19 20:31N 43°25' E 004°51'0 0.0
2014-Sep-19 19:28N 43°25' E 004°51'0 0.0
2014-Sep-19 18:31N 43°25' E 004°51'0 0.0
2014-Sep-19 17:31N 43°25' E 004°51'0 0.0
2014-Sep-19 16:28N 43°25' E 004°51'0 0.0
2014-Sep-19 15:31N 43°25' E 004°51'0 0.0
2014-Sep-19 14:31N 43°25' E 004°51'0 0.0
2014-Sep-19 13:28N 43°25' E 004°51'0 0.0
2014-Sep-19 12:31N 43°25' E 004°51'0 0.0
2014-Sep-19 11:31N 43°25' E 004°51'0 0.0
2014-Sep-19 10:31N 43°25' E 004°51'0 0.0
2014-Sep-19 09:31N 43°25' E 004°51'0 0.0
2014-Sep-19 08:31N 43°25' E 004°51'0 0.0
2014-Sep-19 07:31N 43°25' E 004°51'0 0.0
2014-Sep-19 06:28N 43°25' E 004°51'0 0.0
2014-Sep-19 05:28N 43°25' E 004°51'0 0.0
2014-Sep-19 04:31N 43°25' E 004°51'0 0.0
2014-Sep-19 03:31N 43°25' E 004°51'0 0.0
2014-Sep-19 02:31N 43°25' E 004°51'0 0.0
2014-Sep-19 01:31N 43°25' E 004°51'0 0.0
2014-Sep-19 00:31N 43°25' E 004°51'0 0.0
2014-Sep-18 23:31N 43°25' E 004°51'0 0.0
2014-Sep-18 22:31N 43°25' E 004°51'0 0.1
2014-Sep-18 21:31N 43°25' E 004°51'0 0.0
2014-Sep-18 20:33N 43°25' E 004°51'6 5.6
2014-Sep-18 19:33N 43°22' E 004°58'2 2.1
2014-Sep-18 18:31N 43°21' E 004°60'0 0.0
2014-Sep-18 17:31N 43°21' E 004°60'0 0.0
2014-Sep-18 16:31N 43°21' E 004°60'0 0.0
2014-Sep-18 15:31N 43°21' E 004°60'0 0.0
2014-Sep-18 14:31N 43°21' E 004°60'0 0.0
2014-Sep-18 13:31N 43°21' E 004°60'0 0.1
2014-Sep-18 12:33N 43°21' E 005°00'1 1.3
2014-Sep-18 11:33N 43°20' E 004°59'1010.4
2014-Sep-18 10:34N 43°10' E 005°04'1110.5
2014-Sep-18 09:33N 43°03' E 005°16'1110.8
2014-Sep-18 08:30N 42°59' E 005°30'1010.7
2014-Sep-18 07:33N 42°55' E 005°43'1110.6
2014-Sep-18 06:33N 42°51' E 005°56'1110.8
2014-Sep-18 05:33N 42°51' E 006°11'1110.8
2014-Sep-18 04:34N 42°51' E 006°26'1010.3
2014-Sep-18 03:33N 42°55' E 006°39'1110.6
2014-Sep-18 02:33N 43°02' E 006°50'1110.7
2014-Sep-18 01:34N 43°08' E 007°01'1110.8
2014-Sep-18 00:33N 43°15' E 007°13'1110.7
2014-Sep-17 23:33N 43°22' E 007°25'1110.6
2014-Sep-17 22:33N 43°28' E 007°36'1110.5
2014-Sep-17 21:33N 43°35' E 007°48'1110.8
2014-Sep-17 20:33N 43°41' E 007°59'1110.7
2014-Sep-17 19:33N 43°48' E 008°11'1110.9
2014-Sep-17 18:32N 43°57' E 008°21'1110.8
2014-Sep-17 17:34N 44°05' E 008°30'1110.8
2014-Sep-17 16:33N 44°14' E 008°39'1110.5
2014-Sep-17 15:33N 44°24' E 008°43'3 3.0
2014-Sep-17 14:33N 44°25' E 008°47'0 0.0
2014-Sep-17 13:33N 44°25' E 008°47'  

Dump ship's entire track history